createdAt,value
2022-09-27T00:01:02.213Z,11.10
2022-09-27T00:03:30.814Z,11.20
2022-09-27T00:06:15.649Z,11.10
2022-09-27T00:08:43.570Z,11.20
2022-09-27T00:11:25.326Z,11.10
2022-09-27T00:13:53.049Z,11.20
2022-09-27T00:16:20.001Z,11.20
2022-09-27T00:18:46.867Z,11.10
2022-09-27T00:21:14.707Z,11.20
2022-09-27T00:23:42.027Z,11.20
2022-09-27T00:26:12.880Z,11.10
2022-09-27T00:28:40.292Z,11.10
2022-09-27T00:31:20.991Z,11.10
2022-09-27T00:33:50.193Z,11.00
2022-09-27T00:36:18.295Z,11.10
2022-09-27T00:38:45.320Z,11.00
2022-09-27T00:41:23.672Z,11.00
2022-09-27T00:43:51.790Z,11.10
2022-09-27T00:46:29.659Z,10.90
2022-09-27T00:49:16.067Z,10.90
2022-09-27T00:51:48.543Z,10.90
2022-09-27T00:54:18.711Z,10.90
2022-09-27T00:56:46.656Z,10.90
2022-09-27T00:59:27.110Z,11.00
2022-09-27T01:01:54.134Z,11.00
2022-09-27T01:04:24.535Z,11.00
2022-09-27T01:06:52.826Z,11.00
2022-09-27T01:09:20.873Z,11.10
2022-09-27T01:12:24.827Z,11.00
2022-09-27T01:15:03.662Z,11.00
2022-09-27T01:17:51.725Z,11.00
2022-09-27T01:20:41.599Z,11.00
2022-09-27T01:23:20.394Z,11.00
2022-09-27T01:25:58.403Z,11.10
2022-09-27T01:29:07.069Z,11.00
2022-09-27T01:31:37.762Z,10.90
2022-09-27T01:34:07.417Z,11.10
2022-09-27T01:36:42.112Z,10.90
2022-09-27T01:39:32.819Z,10.90
2022-09-27T01:42:27.631Z,10.90
2022-09-27T01:45:09.793Z,10.80
2022-09-27T01:47:59.614Z,10.80
2022-09-27T01:50:54.266Z,10.80
2022-09-27T01:53:30.386Z,10.80
2022-09-27T01:56:34.621Z,10.80
2022-09-27T01:59:14.853Z,10.70
2022-09-27T02:01:52.012Z,10.70
2022-09-27T02:04:30.637Z,10.70
2022-09-27T02:07:08.349Z,10.60
2022-09-27T02:09:49.082Z,10.80
2022-09-27T02:12:26.068Z,10.50
2022-09-27T02:15:26.948Z,10.50
2022-09-27T02:18:29.793Z,10.50
2022-09-27T02:21:00.941Z,10.40
2022-09-27T02:23:34.210Z,10.40
2022-09-27T02:26:21.616Z,10.40
2022-09-27T02:29:03.619Z,10.30
2022-09-27T02:31:35.338Z,10.20
2022-09-27T02:34:11.335Z,10.30
2022-09-27T02:36:38.713Z,10.00
2022-09-27T02:39:06.274Z,10.00
2022-09-27T02:41:34.450Z,9.90
2022-09-27T02:44:09.002Z,9.90
2022-09-27T02:47:12.602Z,9.80
2022-09-27T02:49:43.567Z,9.80
2022-09-27T02:52:58.154Z,9.80
2022-09-27T02:55:55.296Z,9.80
2022-09-27T02:59:34.671Z,9.90
2022-09-27T03:02:21.537Z,9.90
2022-09-27T03:05:07.310Z,9.90
2022-09-27T03:07:34.938Z,9.80
2022-09-27T03:10:02.492Z,9.70
2022-09-27T03:12:29.472Z,9.70
2022-09-27T03:15:00.405Z,9.60
2022-09-27T03:18:03.432Z,9.80
2022-09-27T03:20:44.073Z,9.70
2022-09-27T03:23:12.593Z,9.60
2022-09-27T03:25:40.461Z,9.60
2022-09-27T03:28:09.250Z,9.60
2022-09-27T03:30:37.797Z,9.60
2022-09-27T03:33:05.097Z,9.80
2022-09-27T03:35:43.322Z,9.80
2022-09-27T03:38:11.011Z,9.90
2022-09-27T03:40:38.563Z,10.00
2022-09-27T03:43:10.945Z,10.00
2022-09-27T03:45:37.756Z,10.00
2022-09-27T03:48:09.810Z,10.10
2022-09-27T03:50:38.827Z,10.10
2022-09-27T03:53:06.088Z,10.10
2022-09-27T03:55:42.204Z,10.00
2022-09-27T03:58:09.492Z,10.10
2022-09-27T04:00:37.158Z,10.10
2022-09-27T04:03:13.474Z,10.10
2022-09-27T04:05:49.557Z,10.10
2022-09-27T04:08:26.524Z,10.20
2022-09-27T04:10:53.765Z,10.10
2022-09-27T04:13:21.134Z,10.10
2022-09-27T04:15:54.216Z,10.10
2022-09-27T04:18:39.407Z,10.10
2022-09-27T04:21:25.138Z,10.10
2022-09-27T04:23:53.213Z,10.20
2022-09-27T04:26:23.151Z,10.20
2022-09-27T04:28:59.699Z,10.10
2022-09-27T04:31:30.659Z,10.10
2022-09-27T04:34:46.204Z,10.20
2022-09-27T04:37:20.305Z,10.10
2022-09-27T04:39:52.593Z,10.10
2022-09-27T04:42:19.417Z,10.10
2022-09-27T04:44:47.981Z,10.00
2022-09-27T04:47:18.039Z,10.10
2022-09-27T04:49:45.239Z,10.00
2022-09-27T04:52:12.239Z,10.10
2022-09-27T04:54:39.211Z,10.10
2022-09-27T04:57:12.786Z,10.10
2022-09-27T04:59:42.671Z,10.10
2022-09-27T05:02:11.114Z,10.10
2022-09-27T05:04:59.246Z,10.10
2022-09-27T05:07:29.993Z,10.20
2022-09-27T05:10:08.069Z,10.10
2022-09-27T05:12:35.926Z,10.10
2022-09-27T05:15:03.638Z,10.00
2022-09-27T05:18:08.125Z,10.20
2022-09-27T05:20:36.131Z,10.20
2022-09-27T05:23:23.065Z,10.10
2022-09-27T05:25:49.965Z,10.20
2022-09-27T05:28:16.779Z,10.10
2022-09-27T05:30:43.794Z,10.10
2022-09-27T05:33:17.007Z,10.10
2022-09-27T05:35:47.440Z,10.10
2022-09-27T05:38:14.231Z,10.10
2022-09-27T05:40:47.436Z,10.10
2022-09-27T05:43:16.111Z,10.00
2022-09-27T05:45:44.249Z,9.90
2022-09-27T05:48:14.082Z,10.00
2022-09-27T05:50:50.336Z,9.80
2022-09-27T05:53:17.364Z,9.90
2022-09-27T05:55:44.229Z,9.90
2022-09-27T05:58:16.442Z,9.90
2022-09-27T06:00:52.719Z,10.00
2022-09-27T06:03:41.115Z,10.10
2022-09-27T06:06:46.806Z,10.20
2022-09-27T06:09:15.566Z,10.10
2022-09-27T06:11:45.409Z,10.10
2022-09-27T06:14:14.410Z,10.20
2022-09-27T06:16:55.058Z,10.20
2022-09-27T06:19:24.928Z,10.30
2022-09-27T06:21:51.892Z,10.20
2022-09-27T06:24:18.975Z,10.30
2022-09-27T06:26:46.472Z,10.30
2022-09-27T06:29:35.146Z,10.40
2022-09-27T06:32:04.629Z,10.30
2022-09-27T06:34:54.550Z,10.40
2022-09-27T06:37:26.978Z,10.40
2022-09-27T06:39:54.234Z,10.50
2022-09-27T06:42:40.255Z,10.20
2022-09-27T06:45:31.673Z,10.50
2022-09-27T06:48:17.426Z,10.60
2022-09-27T06:51:13.488Z,10.60
2022-09-27T06:53:40.351Z,10.60
2022-09-27T06:56:07.411Z,10.60
2022-09-27T06:59:03.111Z,10.60
2022-09-27T07:01:42.069Z,10.70
2022-09-27T07:04:30.930Z,10.80
2022-09-27T07:07:10.500Z,10.80
2022-09-27T07:09:40.168Z,10.90
2022-09-27T07:12:08.452Z,11.20
2022-09-27T07:14:35.828Z,11.10
2022-09-27T07:17:04.396Z,11.10
2022-09-27T07:19:36.584Z,11.10
2022-09-27T07:22:03.620Z,11.10
2022-09-27T07:24:30.618Z,11.10
2022-09-27T07:26:57.737Z,11.10
2022-09-27T07:29:27.962Z,11.10
2022-09-27T07:31:54.869Z,11.10
2022-09-27T07:34:21.681Z,11.10
2022-09-27T07:36:48.485Z,11.10
2022-09-27T07:39:15.664Z,11.10
2022-09-27T07:41:46.695Z,11.40
2022-09-27T07:44:16.257Z,11.30
2022-09-27T07:47:00.857Z,11.30
2022-09-27T07:49:47.718Z,11.40
2022-09-27T07:52:22.851Z,11.50
2022-09-27T07:55:25.306Z,11.50
2022-09-27T07:58:07.144Z,11.50
2022-09-27T08:00:34.435Z,11.40
2022-09-27T08:03:10.149Z,11.40
2022-09-27T08:05:37.133Z,11.30
2022-09-27T08:08:05.259Z,11.30
2022-09-27T08:10:33.404Z,11.30
2022-09-27T08:13:05.515Z,11.40
2022-09-27T08:15:36.398Z,11.50
2022-09-27T08:18:03.343Z,11.60
2022-09-27T08:20:56.967Z,11.60
2022-09-27T08:23:27.143Z,11.50
2022-09-27T08:26:12.219Z,11.30
2022-09-27T08:28:52.806Z,11.40
2022-09-27T08:31:25.372Z,11.40
2022-09-27T08:33:54.959Z,11.40
2022-09-27T08:36:23.570Z,11.50
2022-09-27T08:38:52.160Z,11.60
2022-09-27T08:41:45.415Z,11.80
2022-09-27T08:44:36.572Z,11.90
2022-09-27T08:47:25.882Z,12.10
2022-09-27T08:50:19.275Z,12.20
2022-09-27T08:53:10.997Z,12.50
2022-09-27T08:55:45.292Z,12.70
2022-09-27T08:58:35.845Z,13.00
2022-09-27T09:01:11.474Z,13.10
2022-09-27T09:03:56.603Z,13.20
2022-09-27T09:06:31.950Z,13.20
2022-09-27T09:09:23.654Z,13.00
2022-09-27T09:12:38.538Z,12.70
2022-09-27T09:15:05.307Z,12.40
2022-09-27T09:18:09.210Z,12.30
2022-09-27T09:21:17.406Z,12.30
2022-09-27T09:24:02.903Z,12.30
2022-09-27T09:26:48.079Z,12.30
2022-09-27T09:29:36.300Z,12.20
2022-09-27T09:32:39.928Z,12.20
2022-09-27T09:35:13.433Z,12.10
2022-09-27T09:37:50.989Z,12.10
2022-09-27T09:40:19.509Z,12.10
2022-09-27T09:43:33.588Z,12.00
2022-09-27T09:46:12.903Z,12.00
2022-09-27T09:48:39.917Z,11.90
2022-09-27T09:51:11.702Z,12.10
2022-09-27T09:53:49.332Z,12.10
2022-09-27T09:56:38.513Z,12.10
2022-09-27T09:59:15.385Z,12.00
2022-09-27T10:01:48.459Z,12.00
2022-09-27T10:04:24.409Z,11.90
2022-09-27T10:06:54.531Z,11.90
2022-09-27T10:09:28.365Z,12.00
2022-09-27T10:12:29.083Z,11.80
2022-09-27T10:14:59.582Z,11.90
2022-09-27T10:17:35.180Z,11.80
2022-09-27T10:20:04.553Z,11.90
2022-09-27T10:22:47.829Z,11.90
2022-09-27T10:25:55.917Z,11.80
2022-09-27T10:28:52.451Z,12.00
2022-09-27T10:31:37.008Z,12.30
2022-09-27T10:34:35.579Z,12.60
2022-09-27T10:37:12.593Z,13.00
2022-09-27T10:39:54.057Z,13.40
2022-09-27T10:42:30.053Z,13.80
2022-09-27T10:45:33.085Z,14.20
2022-09-27T10:48:23.353Z,14.50
2022-09-27T10:51:00.749Z,14.80
2022-09-27T10:53:47.542Z,14.90
2022-09-27T10:56:27.722Z,15.10
2022-09-27T10:58:56.252Z,15.30
2022-09-27T11:01:25.579Z,15.50
2022-09-27T11:04:04.656Z,15.10
2022-09-27T11:06:38.152Z,15.30
2022-09-27T11:09:26.536Z,15.50
2022-09-27T11:12:13.133Z,15.50
2022-09-27T11:14:41.283Z,15.60
2022-09-27T11:17:11.225Z,15.60
2022-09-27T11:19:53.332Z,15.60
2022-09-27T11:22:38.792Z,15.70
2022-09-27T11:25:08.998Z,15.60
2022-09-27T11:28:00.142Z,15.60
2022-09-27T11:30:50.328Z,15.40
2022-09-27T11:33:57.730Z,15.30
2022-09-27T11:36:37.502Z,15.30
2022-09-27T11:39:28.082Z,15.30
2022-09-27T11:42:18.367Z,15.70
2022-09-27T11:48:18.710Z,16.00
2022-09-27T11:51:10.521Z,15.70
2022-09-27T11:53:52.809Z,15.10
2022-09-27T11:56:35.318Z,14.10
2022-09-27T11:59:42.200Z,13.90
2022-09-27T12:02:43.412Z,13.50
2022-09-27T12:05:28.429Z,13.20
2022-09-27T12:08:07.730Z,13.20
2022-09-27T12:10:38.052Z,13.40
2022-09-27T12:13:09.257Z,13.70
2022-09-27T12:15:42.694Z,14.00
2022-09-27T12:18:32.086Z,14.30
2022-09-27T12:21:03.202Z,14.70
2022-09-27T12:23:50.735Z,15.00
2022-09-27T12:26:42.968Z,15.20
2022-09-27T12:29:26.967Z,15.40
2022-09-27T12:32:22.065Z,15.60
2022-09-27T12:35:18.184Z,15.90
2022-09-27T12:37:59.297Z,16.10
2022-09-27T12:40:34.834Z,16.30
2022-09-27T12:43:29.286Z,16.40
2022-09-27T12:46:59.626Z,16.40
2022-09-27T12:49:55.449Z,16.40
2022-09-27T12:52:30.895Z,16.30
2022-09-27T12:55:30.025Z,16.40
2022-09-27T12:58:29.576Z,16.50
2022-09-27T13:01:24.117Z,16.50
2022-09-27T13:04:29.691Z,16.30
2022-09-27T13:07:26.667Z,16.00
2022-09-27T13:10:09.898Z,15.70
2022-09-27T13:12:40.316Z,15.60
2022-09-27T13:15:31.324Z,15.50
2022-09-27T13:18:03.475Z,15.20
2022-09-27T13:20:42.568Z,15.10
2022-09-27T13:23:38.831Z,15.00
2022-09-27T13:26:33.029Z,14.60
2022-09-27T13:29:04.646Z,14.20
2022-09-27T13:31:54.077Z,14.00
2022-09-27T13:34:40.823Z,14.10
2022-09-27T13:37:36.675Z,14.40
2022-09-27T13:40:15.789Z,14.60
2022-09-27T13:43:13.115Z,14.70
2022-09-27T13:45:57.233Z,14.80
2022-09-27T13:48:37.277Z,15.00
2022-09-27T13:51:17.302Z,15.50
2022-09-27T13:54:07.964Z,15.60
2022-09-27T13:56:36.880Z,15.40
2022-09-27T13:59:18.042Z,14.90
2022-09-27T14:02:19.451Z,14.30
2022-09-27T14:04:50.723Z,13.80
2022-09-27T14:07:24.903Z,13.30
2022-09-27T14:09:55.569Z,13.10
2022-09-27T14:12:32.239Z,13.10
2022-09-27T14:15:04.015Z,13.20
2022-09-27T14:17:33.059Z,13.20
2022-09-27T14:20:01.254Z,13.40
2022-09-27T14:22:29.589Z,13.40
2022-09-27T14:24:59.022Z,13.60
2022-09-27T14:27:38.064Z,13.90
2022-09-27T14:30:30.002Z,14.10
2022-09-27T14:33:31.135Z,14.20
2022-09-27T14:36:25.821Z,14.20
2022-09-27T14:38:58.830Z,14.00
2022-09-27T14:41:36.931Z,13.80
2022-09-27T14:44:03.820Z,13.50
2022-09-27T14:46:32.151Z,13.60
2022-09-27T14:48:59.597Z,13.50
2022-09-27T14:51:30.043Z,13.30
2022-09-27T14:54:01.208Z,13.30
2022-09-27T14:56:32.574Z,13.30
2022-09-27T14:59:04.762Z,13.30
2022-09-27T15:01:32.492Z,13.20
2022-09-27T15:04:06.836Z,13.30
2022-09-27T15:06:37.278Z,13.10
2022-09-27T15:09:05.807Z,13.00
2022-09-27T15:11:34.606Z,12.90
2022-09-27T15:14:03.263Z,13.00
2022-09-27T15:16:31.245Z,12.90
2022-09-27T15:19:24.391Z,12.90
2022-09-27T15:21:51.306Z,13.20
2022-09-27T15:24:46.037Z,13.60
2022-09-27T15:27:22.569Z,14.20
2022-09-27T15:29:55.197Z,15.40
2022-09-27T15:32:29.002Z,16.20
2022-09-27T15:34:57.040Z,18.00
2022-09-27T15:37:33.833Z,19.20
2022-09-27T15:40:46.583Z,19.30
2022-09-27T15:43:29.540Z,18.20
2022-09-27T15:46:01.927Z,16.80
2022-09-27T15:48:32.062Z,15.80
2022-09-27T15:50:59.397Z,15.10
2022-09-27T15:53:35.094Z,14.50
2022-09-27T15:56:03.845Z,14.20
2022-09-27T15:58:32.528Z,13.90
2022-09-27T16:01:08.118Z,13.80
2022-09-27T16:03:35.571Z,13.80
2022-09-27T16:06:03.883Z,13.90
2022-09-27T16:08:30.623Z,13.80
2022-09-27T16:10:59.524Z,13.80
2022-09-27T16:13:32.366Z,13.90
2022-09-27T16:16:00.409Z,13.80
2022-09-27T16:18:30.628Z,14.00
2022-09-27T16:20:58.702Z,14.20
2022-09-27T16:23:25.582Z,13.80
2022-09-27T16:25:55.238Z,13.80
2022-09-27T16:28:22.122Z,13.60
2022-09-27T16:30:48.936Z,13.70
2022-09-27T16:33:19.124Z,13.70
2022-09-27T16:35:45.886Z,13.40
2022-09-27T16:38:14.616Z,13.50
2022-09-27T16:40:41.360Z,13.50
2022-09-27T16:43:09.231Z,13.50
2022-09-27T16:45:36.515Z,13.40
2022-09-27T16:48:04.111Z,13.40
2022-09-27T16:50:49.602Z,13.30
2022-09-27T16:53:17.438Z,13.20
2022-09-27T16:55:44.381Z,13.00
2022-09-27T16:58:11.127Z,13.10
2022-09-27T17:00:38.790Z,13.00
2022-09-27T17:03:06.518Z,12.90
2022-09-27T17:05:33.269Z,12.90
2022-09-27T17:08:00.166Z,12.80
2022-09-27T17:10:27.353Z,12.80
2022-09-27T17:12:57.926Z,12.70
2022-09-27T17:15:24.836Z,12.70
2022-09-27T17:17:52.103Z,12.60
2022-09-27T17:20:18.935Z,12.60
2022-09-27T17:22:45.697Z,12.60
2022-09-27T17:25:12.440Z,12.60
2022-09-27T17:27:40.529Z,12.40
2022-09-27T17:30:07.914Z,12.40
2022-09-27T17:32:35.030Z,12.40
2022-09-27T17:35:02.514Z,12.40
2022-09-27T17:37:29.390Z,12.40
2022-09-27T17:39:57.564Z,12.30
2022-09-27T17:42:25.370Z,12.50
2022-09-27T17:44:54.438Z,12.50
2022-09-27T17:47:39.859Z,12.40
2022-09-27T17:50:25.027Z,12.40
2022-09-27T17:52:56.058Z,12.40
2022-09-27T17:55:23.186Z,12.30
2022-09-27T17:57:50.550Z,12.40
2022-09-27T18:00:18.335Z,12.30
2022-09-27T18:02:45.317Z,12.30
2022-09-27T18:05:12.529Z,12.50
2022-09-27T18:07:39.270Z,12.20
2022-09-27T18:10:06.609Z,12.30
2022-09-27T18:12:34.742Z,12.10
2022-09-27T18:15:03.777Z,12.10
2022-09-27T18:17:30.970Z,12.10
2022-09-27T18:20:00.366Z,12.10
2022-09-27T18:22:30.952Z,12.00
2022-09-27T18:24:57.841Z,12.10
2022-09-27T18:27:24.810Z,12.20
2022-09-27T18:29:53.847Z,12.00
2022-09-27T18:32:22.691Z,11.60
2022-09-27T18:34:49.615Z,11.40
2022-09-27T18:37:17.652Z,11.10
2022-09-27T18:39:44.526Z,10.80
2022-09-27T18:42:11.261Z,10.60
2022-09-27T18:44:39.126Z,10.40
2022-09-27T18:47:05.971Z,10.20
2022-09-27T18:49:34.235Z,10.20
2022-09-27T18:52:02.506Z,10.10
2022-09-27T18:54:29.333Z,10.00
2022-09-27T18:56:56.317Z,10.00
2022-09-27T18:59:24.248Z,10.00
2022-09-27T19:01:51.518Z,10.10
2022-09-27T19:04:24.862Z,10.20
2022-09-27T19:06:53.811Z,10.00
2022-09-27T19:09:21.966Z,10.20
2022-09-27T19:11:49.038Z,10.30
2022-09-27T19:14:22.911Z,10.30
2022-09-27T19:16:51.632Z,10.40
2022-09-27T19:19:19.685Z,10.50
2022-09-27T19:21:47.244Z,10.50
2022-09-27T19:24:15.112Z,10.40
2022-09-27T19:26:42.650Z,10.50
2022-09-27T19:29:10.919Z,10.30
2022-09-27T19:31:38.114Z,10.30
2022-09-27T19:34:11.265Z,10.20
2022-09-27T19:36:38.075Z,10.10
2022-09-27T19:39:04.970Z,10.10
2022-09-27T19:41:31.824Z,10.00
2022-09-27T19:43:59.738Z,10.00
2022-09-27T19:46:27.006Z,10.00
2022-09-27T19:48:55.206Z,10.10
2022-09-27T19:51:27.287Z,10.00
2022-09-27T19:53:54.884Z,10.00
2022-09-27T19:56:45.416Z,9.90
2022-09-27T19:59:12.430Z,9.90
2022-09-27T20:01:41.314Z,10.00
2022-09-27T20:04:10.886Z,10.10
2022-09-27T20:06:37.821Z,10.20
2022-09-27T20:09:04.951Z,10.20
2022-09-27T20:11:33.096Z,10.20
2022-09-27T20:14:00.197Z,10.30
2022-09-27T20:16:27.439Z,10.40
2022-09-27T20:18:57.502Z,10.40
2022-09-27T20:21:32.337Z,10.50
2022-09-27T20:24:01.960Z,10.70
2022-09-27T20:26:30.914Z,10.50
2022-09-27T20:29:00.372Z,10.50
2022-09-27T20:31:33.661Z,10.60
2022-09-27T20:34:05.563Z,10.60
2022-09-27T20:36:37.398Z,10.60
2022-09-27T20:39:07.568Z,10.50
2022-09-27T20:41:40.878Z,10.50
2022-09-27T20:44:10.713Z,10.50
2022-09-27T20:46:44.117Z,10.40
2022-09-27T20:49:14.759Z,10.50
2022-09-27T20:51:44.124Z,10.60
2022-09-27T20:54:12.618Z,10.40
2022-09-27T20:56:46.595Z,10.50
2022-09-27T20:59:20.383Z,10.40
2022-09-27T21:01:49.616Z,10.50
2022-09-27T21:04:18.537Z,10.30
2022-09-27T21:06:45.831Z,10.20
2022-09-27T21:09:18.661Z,10.10
2022-09-27T21:11:48.764Z,10.10
2022-09-27T21:14:15.956Z,10.10
2022-09-27T21:16:43.031Z,10.00
2022-09-27T21:19:10.155Z,10.30
2022-09-27T21:21:37.348Z,10.20
2022-09-27T21:24:06.710Z,10.10
2022-09-27T21:26:34.748Z,10.10
2022-09-27T21:29:06.813Z,10.10
2022-09-27T21:31:35.889Z,10.10
2022-09-27T21:34:04.833Z,10.10
2022-09-27T21:36:35.901Z,10.10
2022-09-27T21:39:04.898Z,10.10
2022-09-27T21:41:32.067Z,10.00
2022-09-27T21:44:02.482Z,10.00
2022-09-27T21:46:29.526Z,10.00
2022-09-27T21:48:59.323Z,10.00
2022-09-27T21:51:36.561Z,10.20
2022-09-27T21:54:06.706Z,10.00
2022-09-27T21:56:36.315Z,10.10
2022-09-27T21:59:04.119Z,10.10
2022-09-27T22:01:33.080Z,10.10
2022-09-27T22:04:01.162Z,10.10
2022-09-27T22:06:34.039Z,10.10
2022-09-27T22:09:11.341Z,10.10
2022-09-27T22:11:43.878Z,10.10
2022-09-27T22:14:12.696Z,10.20
2022-09-27T22:16:39.963Z,10.20
2022-09-27T22:19:07.340Z,10.20
2022-09-27T22:21:36.747Z,10.20
2022-09-27T22:24:11.226Z,10.10
2022-09-27T22:26:49.400Z,10.10
2022-09-27T22:29:16.706Z,10.10
2022-09-27T22:31:43.813Z,10.30
2022-09-27T22:34:18.269Z,10.10
2022-09-27T22:36:45.130Z,10.10
2022-09-27T22:39:12.486Z,10.10
2022-09-27T22:41:39.405Z,10.20
2022-09-27T22:44:07.696Z,10.20
2022-09-27T22:46:35.652Z,10.20
2022-09-27T22:49:02.613Z,10.20
2022-09-27T22:51:29.703Z,10.20
2022-09-27T22:53:56.605Z,10.20
2022-09-27T22:56:24.445Z,10.20
2022-09-27T22:58:51.633Z,10.50
2022-09-27T23:01:20.371Z,10.20
2022-09-27T23:03:48.414Z,10.30
2022-09-27T23:06:17.717Z,10.30
2022-09-27T23:08:45.131Z,10.40
2022-09-27T23:11:18.590Z,10.40
2022-09-27T23:13:46.460Z,10.40
2022-09-27T23:16:20.297Z,10.50
2022-09-27T23:18:47.902Z,10.50
2022-09-27T23:21:24.735Z,10.50
2022-09-27T23:23:52.966Z,10.50
2022-09-27T23:26:24.655Z,10.40
2022-09-27T23:28:56.292Z,10.50
2022-09-27T23:31:24.785Z,10.20
2022-09-27T23:33:52.350Z,10.10
2022-09-27T23:36:24.104Z,10.00
2022-09-27T23:38:51.105Z,10.30
2022-09-27T23:41:18.883Z,10.10
2022-09-27T23:43:46.458Z,10.10
2022-09-27T23:46:13.728Z,10.00
2022-09-27T23:48:41.055Z,9.80
2022-09-27T23:51:10.200Z,9.70
2022-09-27T23:53:38.411Z,9.70
2022-09-27T23:56:07.109Z,9.60
2022-09-27T23:58:39.103Z,9.50
